Arundel, Maine
Current Conditions -  °F | °C
As of 2:55 PM on Thursday 23 Oct 2014 (Local Time) from KSFM Reporting Station
Overcast Overcast  
Wind Chill: 50°   Ceiling: 1700
Heat Index: 50°   Visibility: 8mi
Dew Point: 43°   Wind: 20mph
Humidity: 76%   Direction: 10°N
Pressure: 29.71"   Gusts: 26mph
Location:  43.4079°N, 70.4735°W
Report Text: KSFM 231855Z AUTO 01017G23KT 8SM SCT009 OVC017 10/06 A2971 RMK AO1 P0001
Loading
Personal Weather Stations






























Interactive Weather Map
Tropical Storm Tracking
New forecast layout! Learn more

10-Day Weather Forecast

Advertisements
Track Severe Weather on mobile